CNUK1: Grand River, Chanute

Data processed at Mon Sep 24 2018 22:02


All information presented herein is the property of the government of the United States of America and may be revised or deleted at any time without prior notice.
Dissemination of this information without the expressed written consent of the Public Affairs Office, Tulsa District U.S. Army Corps of Engineers is strictly prohibited.
These data are gathered electronically and, as presented, have not undergone any form of quality control. These data are not guaranteed to be valid or correct.
Go to home page.
Go to station list.
Go to home page.

Upstream stations:

Downstream station:
Previous Day
Next Day
Current Day
    
SHEF ID:       CNUK1     NEOSHO R NR CHANUTE, KS
STATION TYPE:  

               PRECIP     STAGE  RIV-FLOW   VOLTAGE  BAT-LOAD
                   in        ft       cfs      volt      volt
              Ccp-Rev   Ccp-Rev   Ccp-Rev   Ccp-Rev   Ccp-Rev
(US/Central)
09/24 00:00      0.00      9.38      1370     12.81     12.65
09/24 01:00      0.00      9.39      1380     12.81     12.65
09/24 02:00      0.00      9.38      1370     12.81     12.65
09/24 03:00      0.00      9.38      1370     12.81     12.65
09/24 04:00      0.00      9.38      1370     12.81     12.65
09/24 05:00      0.00      9.38      1370     12.73     12.57
09/24 06:00      0.00      9.38      1370     12.73     12.57
09/24 07:00      0.00      9.38      1370     12.73     12.57
09/24 08:00      0.00      9.38      1370     12.73     12.57
09/24 09:00      0.00      9.38      1370     12.73     12.57
09/24 10:00      0.00      9.38      1370     13.05     12.65
09/24 11:00      0.00      9.37      1360     13.37     13.29
09/24 12:00      0.00      9.37      1360     13.44     13.29
09/24 13:00      0.00      9.36      1350     13.60     13.44
09/24 14:00      0.00      9.36      1350     13.44     13.21
09/24 15:00      0.00      9.36      1350     14.00     13.29
09/24 16:00      0.00      9.36      1350     13.68     13.44
09/24 17:00      0.00      9.35      1340      ----      ----
09/24 18:00      0.00      9.35      1340     13.21     13.29
09/24 19:00      0.00      9.35      1340     12.89     12.81
09/24 20:00      0.00      9.35      1340     12.89     12.73
09/24 21:00      0.00      9.35      1340     12.81     12.73
09/24 22:00      ----      ----      ----      ----      ----
09/24 23:00      ----      ----      ----      ----      ----